createdAt,value
2018-02-24T00:01:23.529Z,37.40
2018-02-24T00:03:51.092Z,39.97
2018-02-24T00:06:18.631Z,38.50
2018-02-24T00:08:46.194Z,36.95
2018-02-24T00:11:13.738Z,31.60
2018-02-24T00:13:41.294Z,40.75
2018-02-24T00:16:08.825Z,34.85
2018-02-24T00:18:37.163Z,30.15
2018-02-24T00:21:04.730Z,31.33
2018-02-24T00:23:32.298Z,35.97
2018-02-24T00:25:59.844Z,34.53
2018-02-24T00:28:27.419Z,32.83
2018-02-24T00:30:54.962Z,40.50
2018-02-24T00:33:22.522Z,38.55
2018-02-24T00:35:50.072Z,41.88
2018-02-24T00:38:17.651Z,46.35
2018-02-24T00:40:45.194Z,45.72
2018-02-24T00:43:12.763Z,32.72
2018-02-24T00:45:40.318Z,31.87
2018-02-24T00:48:07.882Z,35.60
2018-02-24T00:50:35.425Z,40.50
2018-02-24T00:53:03.039Z,35.55
2018-02-24T00:55:30.538Z,38.47
2018-02-24T00:57:58.099Z,34.67
2018-02-24T01:00:25.635Z,41.00
2018-02-24T01:02:53.205Z,34.70
2018-02-24T01:05:20.738Z,42.25
2018-02-24T01:07:49.079Z,37.22
2018-02-24T01:10:16.612Z,37.75
2018-02-24T01:12:44.180Z,41.83
2018-02-24T01:15:11.779Z,36.35
2018-02-24T01:17:39.350Z,37.25
2018-02-24T01:20:06.890Z,39.45
2018-02-24T01:22:34.459Z,36.47
2018-02-24T01:25:01.999Z,34.92
2018-02-24T01:27:29.559Z,38.38
2018-02-24T01:29:57.100Z,39.08
2018-02-24T01:32:24.659Z,39.40
2018-02-24T01:34:52.200Z,36.85
2018-02-24T01:37:19.760Z,41.90
2018-02-24T01:39:47.303Z,40.55
2018-02-24T01:42:15.638Z,32.63
2018-02-24T01:44:43.175Z,41.75
2018-02-24T01:47:10.726Z,39.55
2018-02-24T01:49:38.274Z,37.20
2018-02-24T01:52:05.926Z,45.47
2018-02-24T01:54:34.221Z,36.05
2018-02-24T01:57:01.783Z,39.40
2018-02-24T01:59:29.317Z,35.30
2018-02-24T02:01:57.648Z,43.58
2018-02-24T02:04:25.206Z,39.67
2018-02-24T02:06:52.751Z,37.85
2018-02-24T02:09:20.307Z,40.38
2018-02-24T02:11:47.838Z,35.17
2018-02-24T02:14:16.162Z,42.97
2018-02-24T02:16:43.690Z,34.72
2018-02-24T02:19:11.247Z,38.17
2018-02-24T02:21:38.777Z,43.97
2018-02-24T02:24:07.109Z,39.13
2018-02-24T02:26:34.648Z,29.75
2018-02-24T02:29:02.214Z,36.35
2018-02-24T02:31:29.746Z,39.22
2018-02-24T02:33:58.109Z,36.90
2018-02-24T02:36:25.627Z,39.63
2018-02-24T02:38:53.265Z,44.65
2018-02-24T02:41:20.809Z,39.78
2018-02-24T02:43:49.138Z,35.30
2018-02-24T02:46:16.846Z,33.45
2018-02-24T02:48:45.180Z,42.15
2018-02-24T02:51:12.732Z,36.97
2018-02-24T02:53:40.294Z,39.92
2018-02-24T02:56:07.831Z,37.85
2018-02-24T02:58:35.395Z,34.60
2018-02-24T03:01:02.938Z,41.42
2018-02-24T03:03:30.508Z,47.20
2018-02-24T03:05:58.043Z,38.55
2018-02-24T03:08:25.618Z,37.88
2018-02-24T03:10:53.154Z,35.35
2018-02-24T03:13:21.494Z,36.05
2018-02-24T03:15:49.026Z,36.03
2018-02-24T03:18:16.586Z,36.55
2018-02-24T03:20:44.127Z,42.03
2018-02-24T03:23:11.690Z,44.90
2018-02-24T03:25:39.229Z,39.42
2018-02-24T03:28:07.556Z,49.03
2018-02-24T03:30:35.092Z,32.13
2018-02-24T03:33:02.658Z,38.67
2018-02-24T03:35:30.194Z,34.38
2018-02-24T03:37:58.518Z,37.63
2018-02-24T03:40:26.060Z,28.25
2018-02-24T03:42:53.638Z,39.60
2018-02-24T03:45:21.175Z,29.65
2018-02-24T03:47:48.732Z,33.67
2018-02-24T03:50:16.266Z,39.17
2018-02-24T03:52:44.598Z,41.88
2018-02-24T03:55:12.139Z,41.67
2018-02-24T03:57:39.701Z,35.95
2018-02-24T04:00:07.247Z,37.75
2018-02-24T04:02:34.808Z,43.65
2018-02-24T04:05:02.346Z,32.47
2018-02-24T04:07:30.679Z,34.97
2018-02-24T04:09:58.222Z,36.67
2018-02-24T04:12:25.760Z,41.90
2018-02-24T04:14:53.323Z,40.55
2018-02-24T04:17:20.925Z,46.95
2018-02-24T04:19:48.494Z,43.92
2018-02-24T04:22:16.030Z,41.95
2018-02-24T04:24:43.591Z,46.80
2018-02-24T04:27:11.135Z,36.28
2018-02-24T04:29:38.695Z,39.90
2018-02-24T04:32:06.234Z,39.72
2018-02-24T04:34:33.798Z,35.03
2018-02-24T04:37:03.289Z,35.50
2018-02-24T04:39:31.625Z,36.55
2018-02-24T04:41:59.158Z,40.08
2018-02-24T04:44:26.721Z,37.25
2018-02-24T04:46:54.316Z,42.95
2018-02-24T04:49:21.894Z,32.42
2018-02-24T04:51:50.202Z,38.97
2018-02-24T04:54:17.763Z,36.88
2018-02-24T04:56:45.302Z,37.88
2018-02-24T04:59:13.624Z,38.50
2018-02-24T05:01:41.165Z,42.30
2018-02-24T05:04:08.726Z,38.10
2018-02-24T05:06:36.264Z,37.47
2018-02-24T05:09:03.845Z,41.13
2018-02-24T05:11:31.378Z,43.72
2018-02-24T05:13:59.710Z,47.72
2018-02-24T05:16:27.254Z,49.58
2018-02-24T05:18:54.818Z,36.85
2018-02-24T05:21:22.349Z,41.53
2018-02-24T05:23:49.918Z,38.63
2018-02-24T05:26:17.463Z,42.50
2018-02-24T05:28:45.022Z,41.67
2018-02-24T05:31:12.562Z,36.60
2018-02-24T05:33:40.891Z,43.33
2018-02-24T05:36:08.425Z,44.20
2018-02-24T05:38:35.990Z,44.22
2018-02-24T05:41:03.529Z,39.75
2018-02-24T05:43:31.863Z,40.88
2018-02-24T05:45:59.402Z,40.90
2018-02-24T05:48:26.969Z,42.95
2018-02-24T05:50:54.518Z,38.15
2018-02-24T05:53:22.091Z,40.17
2018-02-24T05:55:49.626Z,36.25
2018-02-24T05:58:17.166Z,40.80
2018-02-24T06:00:46.223Z,44.67
2018-02-24T06:03:13.754Z,48.25
2018-02-24T06:05:41.326Z,42.55
2018-02-24T06:08:08.858Z,42.40
2018-02-24T06:10:36.417Z,49.08
2018-02-24T06:13:03.978Z,41.67
2018-02-24T06:15:31.541Z,43.00
2018-02-24T06:17:59.079Z,46.10
2018-02-24T06:20:27.399Z,42.95
2018-02-24T06:22:54.930Z,51.33
2018-02-24T06:25:22.493Z,47.05
2018-02-24T06:27:50.039Z,38.15
2018-02-24T06:30:18.367Z,42.08
2018-02-24T06:32:45.894Z,42.60
2018-02-24T06:55:11.583Z,40.67
2018-02-24T06:57:39.119Z,52.05
2018-02-24T07:00:06.683Z,50.67
2018-02-24T07:02:34.230Z,45.03
2018-02-24T07:05:01.849Z,43.30
2018-02-24T07:07:29.386Z,48.03
2018-02-24T07:09:56.950Z,41.08
2018-02-24T07:12:25.212Z,39.80
2018-02-24T07:14:52.837Z,56.67
2018-02-24T07:17:20.376Z,38.90
2018-02-24T07:19:48.708Z,54.15
2018-02-24T07:22:17.010Z,41.40
2018-02-24T07:24:44.571Z,40.60
2018-02-24T07:27:12.116Z,43.47
2018-02-24T07:29:39.812Z,40.58
2018-02-24T07:32:07.350Z,44.30
2018-02-24T07:34:34.914Z,43.70
2018-02-24T07:37:02.446Z,39.35
2018-02-24T07:39:30.035Z,48.22
2018-02-24T07:41:57.570Z,45.58
2018-02-24T07:44:25.159Z,34.00
2018-02-24T07:46:52.775Z,42.92
2018-02-24T07:49:20.338Z,40.17
2018-02-24T07:51:47.878Z,49.33
2018-02-24T07:54:15.438Z,46.37
2018-02-24T07:56:43.054Z,40.45
2018-02-24T07:59:10.677Z,46.67
2018-02-24T08:01:38.219Z,43.20
2018-02-24T08:04:05.785Z,41.72
2018-02-24T08:06:33.331Z,47.40
2018-02-24T08:09:00.886Z,46.53
2018-02-24T08:11:29.230Z,42.90
2018-02-24T08:13:56.761Z,41.90
2018-02-24T08:16:24.343Z,41.10
2018-02-24T08:18:51.887Z,41.28
2018-02-24T08:21:19.446Z,33.88
2018-02-24T08:23:46.978Z,43.00
2018-02-24T08:26:14.544Z,39.53
2018-02-24T08:28:42.083Z,45.10
2018-02-24T08:31:10.416Z,47.47
2018-02-24T08:33:38.724Z,46.75
2018-02-24T08:36:07.053Z,41.15
2018-02-24T08:38:34.618Z,38.72
2018-02-24T08:41:02.582Z,40.67
2018-02-24T08:43:30.258Z,34.53
2018-02-24T08:45:57.838Z,43.17
2018-02-24T08:48:25.377Z,40.08
2018-02-24T08:50:53.230Z,47.10
2018-02-24T08:53:20.779Z,46.35
2018-02-24T08:55:48.347Z,44.40
2018-02-24T08:58:15.978Z,40.83
2018-02-24T09:00:43.575Z,34.88
2018-02-24T09:03:11.118Z,39.45
2018-02-24T09:05:38.686Z,36.22
2018-02-24T09:08:06.222Z,41.60
2018-02-24T09:10:33.787Z,47.67
2018-02-24T09:13:01.328Z,34.65
2018-02-24T09:15:29.654Z,38.30
2018-02-24T09:17:57.190Z,40.85
2018-02-24T09:20:24.749Z,43.05
2018-02-24T09:22:52.292Z,38.70
2018-02-24T09:25:19.903Z,37.20
2018-02-24T09:27:47.426Z,43.38
2018-02-24T09:30:14.978Z,39.90
2018-02-24T09:32:42.518Z,42.13
2018-02-24T09:35:10.902Z,36.05
2018-02-24T09:37:38.678Z,43.53
2018-02-24T09:40:06.290Z,40.45
2018-02-24T09:42:34.701Z,35.22
2018-02-24T09:45:02.327Z,43.05
2018-02-24T09:47:29.867Z,42.87
2018-02-24T09:49:57.439Z,44.13
2018-02-24T09:52:24.999Z,37.65
2018-02-24T09:54:52.567Z,39.90
2018-02-24T09:57:20.111Z,37.08
2018-02-24T09:59:47.938Z,32.60
2018-02-24T10:02:16.243Z,34.90
2018-02-24T10:04:43.812Z,41.65
2018-02-24T10:07:11.354Z,46.92
2018-02-24T10:09:39.168Z,38.95
2018-02-24T10:12:07.512Z,41.00
2018-02-24T10:14:35.096Z,36.60
2018-02-24T10:17:02.637Z,38.20
2018-02-24T10:19:30.178Z,41.20
2018-02-24T10:21:57.742Z,38.15
2018-02-24T10:24:25.294Z,42.28
2018-02-24T10:26:52.861Z,32.60
2018-02-24T10:29:20.409Z,33.70
2018-02-24T10:31:47.978Z,40.40
2018-02-24T10:34:15.514Z,35.17
2018-02-24T10:36:43.845Z,33.80
2018-02-24T10:39:11.378Z,35.97
2018-02-24T10:41:38.931Z,29.63
2018-02-24T10:44:06.464Z,32.90
2018-02-24T10:46:34.791Z,26.08
2018-02-24T10:49:16.192Z,29.40
2018-02-24T10:51:44.514Z,33.53
2018-02-24T10:54:12.811Z,36.50
2018-02-24T10:56:40.371Z,31.20
2018-02-24T10:59:07.910Z,30.53
2018-02-24T11:01:36.235Z,26.40
2018-02-24T11:04:03.777Z,37.42
2018-02-24T11:06:31.330Z,30.27
2018-02-24T11:08:58.865Z,36.60
2018-02-24T11:11:27.194Z,29.77
2018-02-24T11:13:54.725Z,32.00
2018-02-24T11:16:22.274Z,18.73
2018-02-24T11:18:50.564Z,29.80
2018-02-24T11:21:18.126Z,26.13
2018-02-24T11:23:45.651Z,29.30
2018-02-24T11:26:13.982Z,28.93
2018-02-24T11:28:41.516Z,25.53
2018-02-24T11:31:09.071Z,34.53
2018-02-24T11:33:36.610Z,30.70
2018-02-24T11:36:04.934Z,23.57
2018-02-24T11:38:32.466Z,26.67
2018-02-24T11:41:00.028Z,27.60
2018-02-24T11:43:27.592Z,25.33
2018-02-24T11:45:55.141Z,28.80
2018-02-24T11:48:23.431Z,29.60
2018-02-24T11:50:50.983Z,30.27
2018-02-24T11:53:18.518Z,35.03
2018-02-24T11:55:46.107Z,27.90
2018-02-24T11:58:13.639Z,23.90
2018-02-24T12:00:41.200Z,27.80
2018-02-24T12:03:09.503Z,29.20
2018-02-24T12:05:37.059Z,30.67
2018-02-24T12:08:04.598Z,26.63
2018-02-24T12:10:32.922Z,28.13
2018-02-24T12:13:00.445Z,28.60
2018-02-24T12:15:28.772Z,30.97
2018-02-24T12:17:56.307Z,21.83
2018-02-24T12:20:23.950Z,31.60
2018-02-24T12:22:51.486Z,26.83
2018-02-24T12:25:19.053Z,24.17
2018-02-24T12:27:47.356Z,30.10
2018-02-24T12:30:14.915Z,25.83
2018-02-24T12:32:42.442Z,28.27
2018-02-24T12:35:09.993Z,27.73
2018-02-24T12:37:43.213Z,28.67
2018-02-24T12:40:14.975Z,28.73
2018-02-24T12:42:52.722Z,27.73
2018-02-24T12:45:20.282Z,23.97
2018-02-24T12:47:47.811Z,23.37
2018-02-24T12:50:15.367Z,25.40
2018-02-24T12:52:42.894Z,24.27
2018-02-24T12:55:10.428Z,21.27
2018-02-24T12:57:37.982Z,23.20
2018-02-24T13:00:05.510Z,25.10
2018-02-24T13:02:33.062Z,20.97
2018-02-24T13:05:00.591Z,32.87
2018-02-24T13:07:28.154Z,26.63
2018-02-24T13:09:56.450Z,24.23
2018-02-24T13:12:24.070Z,27.40
2018-02-24T13:14:51.606Z,19.40
2018-02-24T13:17:19.168Z,26.33
2018-02-24T13:19:46.703Z,24.60
2018-02-24T13:22:14.272Z,26.90
2018-02-24T13:24:41.802Z,28.47
2018-02-24T13:27:10.132Z,22.47
2018-02-24T13:29:37.666Z,20.90
2018-02-24T13:32:05.255Z,24.93
2018-02-24T13:34:32.781Z,22.80
2018-02-24T13:37:00.334Z,25.17
2018-02-24T13:39:27.858Z,23.87
2018-02-24T13:41:55.414Z,25.47
2018-02-24T13:44:22.943Z,29.20
2018-02-24T13:46:50.507Z,21.27
2018-02-24T13:49:18.812Z,24.03
2018-02-24T13:51:46.366Z,25.97
2018-02-24T13:54:14.096Z,24.10
2018-02-24T13:56:41.697Z,21.43
2018-02-24T13:59:10.015Z,21.47
2018-02-24T14:01:37.592Z,21.00
2018-02-24T14:04:05.118Z,20.70
2018-02-24T14:06:33.463Z,21.23
2018-02-24T14:09:01.002Z,22.47
2018-02-24T14:11:28.786Z,19.67
2018-02-24T14:13:56.381Z,22.33
2018-02-24T14:16:24.959Z,20.73
2018-02-24T14:18:52.510Z,22.20
2018-02-24T14:21:20.835Z,18.43
2018-02-24T14:23:48.475Z,21.27
2018-02-24T14:26:16.037Z,18.67
2018-02-24T14:28:43.570Z,17.43
2018-02-24T14:31:11.910Z,19.60
2018-02-24T14:33:39.438Z,19.60
2018-02-24T14:36:06.998Z,21.10
2018-02-24T14:38:34.546Z,15.93
2018-02-24T14:41:02.870Z,18.43
2018-02-24T14:43:30.402Z,16.00
2018-02-24T14:45:57.959Z,20.17
2018-02-24T14:48:25.488Z,17.73
2018-02-24T14:50:53.845Z,16.10
2018-02-24T14:53:21.363Z,13.27
2018-02-24T14:55:48.911Z,13.27
2018-02-24T14:58:16.439Z,12.60
2018-02-24T15:00:44.771Z,10.37
2018-02-24T15:03:12.295Z,17.00
2018-02-24T15:05:40.585Z,12.70
2018-02-24T15:08:08.139Z,14.43
2018-02-24T15:10:35.729Z,11.47
2018-02-24T15:13:04.021Z,11.23
2018-02-24T15:15:31.545Z,11.13
2018-02-24T15:18:18.323Z,10.83
2018-02-24T15:20:46.633Z,9.30
2018-02-24T15:23:14.159Z,16.90
2018-02-24T15:25:42.451Z,7.27
2018-02-24T15:28:10.760Z,10.27
2018-02-24T15:30:38.290Z,12.67
2018-02-24T15:33:05.850Z,13.93
2018-02-24T15:35:33.378Z,10.97
2018-02-24T15:38:00.928Z,9.73
2018-02-24T15:40:28.451Z,12.20
2018-02-24T15:42:56.015Z,10.07
2018-02-24T15:45:23.538Z,9.30
2018-02-24T15:47:51.862Z,9.93
2018-02-24T15:50:19.409Z,10.20
2018-02-24T15:52:46.960Z,10.70
2018-02-24T15:55:14.487Z,11.90
2018-02-24T15:57:42.807Z,12.70
2018-02-24T16:00:10.336Z,10.60
2018-02-24T16:02:38.659Z,8.97
2018-02-24T16:05:06.199Z,11.37
2018-02-24T16:07:33.747Z,9.43
2018-02-24T16:10:01.342Z,10.70
2018-02-24T16:12:28.867Z,12.83
2018-02-24T16:14:56.396Z,13.40
2018-02-24T16:17:34.523Z,12.20
2018-02-24T16:20:02.060Z,17.60
2018-02-24T16:22:30.403Z,14.30
2018-02-24T16:24:57.955Z,11.53
2018-02-24T16:27:25.509Z,17.30
2018-02-24T16:29:53.033Z,13.40
2018-02-24T16:32:20.587Z,10.85
2018-02-24T16:34:48.886Z,13.00
2018-02-24T16:37:16.507Z,15.23
2018-02-24T16:39:44.031Z,13.90
2018-02-24T16:42:11.579Z,13.23
2018-02-24T16:44:39.098Z,12.00
2018-02-24T16:47:07.454Z,13.93
2018-02-24T16:49:34.985Z,13.00
2018-02-24T16:52:02.543Z,10.97
2018-02-24T16:54:30.074Z,12.83
2018-02-24T16:56:57.638Z,15.68
2018-02-24T16:59:25.296Z,14.35
2018-02-24T17:01:52.882Z,13.80
2018-02-24T17:04:20.414Z,12.97
2018-02-24T17:06:47.967Z,12.15
2018-02-24T17:09:16.279Z,15.82
2018-02-24T17:11:43.835Z,12.93
2018-02-24T17:14:11.386Z,16.70
2018-02-24T17:16:38.951Z,14.00
2018-02-24T17:19:06.490Z,11.35
2018-02-24T17:21:34.058Z,14.98
2018-02-24T17:24:01.586Z,16.30
2018-02-24T17:26:29.915Z,15.15
2018-02-24T17:28:57.454Z,11.85
2018-02-24T17:31:24.998Z,15.27
2018-02-24T17:33:53.318Z,19.67
2018-02-24T17:36:20.857Z,13.57
2018-02-24T17:38:48.418Z,12.07
2018-02-24T17:41:15.950Z,15.60
2018-02-24T17:43:44.323Z,12.95
2018-02-24T17:46:12.628Z,12.77
2018-02-24T17:48:40.186Z,7.87
2018-02-24T17:51:07.737Z,11.93
2018-02-24T17:53:35.345Z,15.10
2018-02-24T17:56:02.882Z,13.75
2018-02-24T17:58:30.438Z,12.83
2018-02-24T18:00:57.970Z,15.77
2018-02-24T18:03:25.550Z,15.40
2018-02-24T18:05:53.081Z,11.43
2018-02-24T18:08:21.411Z,11.35
2018-02-24T18:10:48.957Z,14.18
2018-02-24T18:13:16.535Z,15.07
2018-02-24T18:15:44.078Z,13.02
2018-02-24T18:18:11.634Z,16.73
2018-02-24T18:20:39.182Z,15.38
2018-02-24T18:23:06.747Z,12.73
2018-02-24T18:25:34.278Z,16.77
2018-02-24T18:28:02.615Z,10.98
2018-02-24T18:30:30.155Z,13.98
2018-02-24T18:32:57.722Z,11.60
2018-02-24T18:35:25.258Z,12.18
2018-02-24T18:37:52.823Z,12.90
2018-02-24T18:40:20.374Z,13.45
2018-02-24T18:42:47.940Z,14.75
2018-02-24T18:45:15.481Z,16.58
2018-02-24T18:47:43.810Z,18.98
2018-02-24T18:50:11.351Z,17.67
2018-02-24T18:52:38.923Z,19.75
2018-02-24T18:55:06.502Z,16.27
2018-02-24T18:57:34.051Z,15.80
2018-02-24T19:00:02.354Z,27.83
2018-02-24T19:02:29.910Z,18.40
2018-02-24T19:04:57.455Z,16.15
2018-02-24T19:07:26.523Z,18.30
2018-02-24T19:09:54.062Z,18.55
2018-02-24T19:12:21.631Z,17.40
2018-02-24T19:14:49.170Z,16.80
2018-02-24T19:17:17.497Z,16.10
2018-02-24T19:19:45.815Z,17.05
2018-02-24T19:22:14.146Z,21.70
2018-02-24T19:24:41.678Z,14.63
2018-02-24T19:27:09.242Z,18.83
2018-02-24T19:29:36.786Z,16.17
2018-02-24T19:32:04.350Z,18.95
2018-02-24T19:34:31.908Z,14.50
2018-02-24T19:36:59.493Z,20.50
2018-02-24T19:39:27.049Z,19.50
2018-02-24T19:41:54.603Z,14.63
2018-02-24T19:44:22.173Z,16.08
2018-02-24T19:46:49.717Z,10.38
2018-02-24T19:49:17.271Z,13.65
2018-02-24T19:51:44.811Z,11.75
2018-02-24T19:54:13.127Z,15.57
2018-02-24T19:56:40.665Z,11.57
2018-02-24T19:59:08.229Z,15.95
2018-02-24T20:01:35.761Z,13.48
2018-02-24T20:04:03.326Z,17.42
2018-02-24T20:06:31.627Z,11.88
2018-02-24T20:08:59.195Z,12.95
2018-02-24T20:11:26.731Z,18.98
2018-02-24T20:13:55.063Z,10.68
2018-02-24T20:16:22.598Z,15.05
2018-02-24T20:18:50.168Z,17.00
2018-02-24T20:21:17.707Z,13.40
2018-02-24T20:23:45.272Z,10.82
2018-02-24T20:26:12.811Z,13.27
2018-02-24T20:28:40.379Z,11.32
2018-02-24T20:31:07.914Z,10.50
2018-02-24T20:33:36.256Z,9.40
2018-02-24T20:36:03.793Z,13.05
2018-02-24T20:38:31.354Z,11.63
2018-02-24T20:40:58.887Z,13.82
2018-02-24T20:43:27.214Z,9.73
2018-02-24T20:45:54.755Z,14.77
2018-02-24T20:48:22.316Z,11.82
2018-02-24T20:50:49.857Z,12.15
2018-02-24T20:53:17.414Z,15.00
2018-02-24T20:55:44.959Z,11.05
2018-02-24T20:58:13.290Z,8.68
2018-02-24T21:00:40.827Z,11.23
2018-02-24T21:03:08.377Z,12.68
2018-02-24T21:05:36.679Z,10.15
2018-02-24T21:08:04.242Z,10.25
2018-02-24T21:10:31.778Z,12.15
2018-02-24T21:13:00.110Z,11.38
2018-02-24T21:15:27.653Z,12.18
2018-02-24T21:17:55.239Z,7.72
2018-02-24T21:20:23.547Z,10.82
2018-02-24T21:22:51.107Z,12.23
2018-02-24T21:25:19.411Z,9.77
2018-02-24T21:27:46.968Z,9.88
2018-02-24T21:30:14.510Z,9.85
2018-02-24T21:32:42.074Z,7.28
2018-02-24T21:35:09.606Z,10.65
2018-02-24T21:37:37.933Z,9.30
2018-02-24T21:40:05.466Z,7.53
2018-02-24T21:42:33.052Z,9.05
2018-02-24T21:45:00.583Z,8.05
2018-02-24T21:47:28.109Z,9.73
2018-02-24T21:49:56.432Z,9.90
2018-02-24T21:52:23.970Z,11.57
2018-02-24T21:54:51.530Z,9.45
2018-02-24T21:57:19.066Z,9.68
2018-02-24T21:59:47.386Z,10.23
2018-02-24T22:02:14.919Z,8.20
2018-02-24T22:04:43.247Z,9.95
2018-02-24T22:07:10.850Z,11.27
2018-02-24T22:09:39.174Z,7.07
2018-02-24T22:12:06.714Z,7.78
2018-02-24T22:14:34.267Z,8.43
2018-02-24T22:17:01.801Z,7.57
2018-02-24T22:19:30.126Z,7.57
2018-02-24T22:21:57.667Z,15.43
2018-02-24T22:24:25.229Z,8.27
2018-02-24T22:26:52.770Z,6.93
2018-02-24T22:29:21.104Z,7.28
2018-02-24T22:31:48.638Z,6.07
2018-02-24T22:34:16.204Z,9.70
2018-02-24T22:36:43.742Z,6.80
2018-02-24T22:39:11.303Z,6.43
2018-02-24T22:41:38.834Z,5.95
2018-02-24T22:44:07.164Z,7.53
2018-02-24T22:46:34.690Z,6.90
2018-02-24T22:49:02.251Z,7.75
2018-02-24T22:51:29.787Z,6.90
2018-02-24T22:53:57.347Z,7.05
2018-02-24T22:56:25.651Z,6.18
2018-02-24T22:58:53.202Z,6.32
2018-02-24T23:01:21.496Z,8.10
2018-02-24T23:03:49.052Z,8.18
2018-02-24T23:06:16.582Z,12.52
2018-02-24T23:08:44.908Z,5.93
2018-02-24T23:11:12.436Z,7.03
2018-02-24T23:13:39.989Z,5.75
2018-02-24T23:16:08.294Z,10.48
2018-02-24T23:18:35.842Z,7.43
2018-02-24T23:21:03.370Z,5.80
2018-02-24T23:23:30.930Z,8.77
2018-02-24T23:25:58.463Z,8.57
2018-02-24T23:28:26.018Z,5.68
2018-02-24T23:30:53.559Z,8.05
2018-02-24T23:33:21.122Z,7.55
2018-02-24T23:35:48.650Z,4.45
2018-02-24T23:38:16.975Z,7.32
2018-02-24T23:40:44.503Z,7.93
2018-02-24T23:43:12.054Z,7.30
2018-02-24T23:45:39.587Z,6.47
2018-02-24T23:48:07.909Z,7.68
2018-02-24T23:50:35.439Z,5.55
2018-02-24T23:53:03.736Z,7.68
2018-02-24T23:55:31.290Z,5.10
2018-02-24T23:57:58.818Z,6.07
